Overton, Nevada Weather observations

Data are for observation ending at time listed.
 Day   Time    Ave.   Ave.  Ave.  Vector   Max.   Stn.    Total    Solar   Ave.  
  of    of     Air    Rel.  Wind   Wind    Wind   Baro.  Precip.   Rad.    Soil  
Year   Day     Temp.  Hum.  Speed  Dir.    Gust   Pres.                    Temp. 
2014   (PST)    F      %     mph   deg.    mph     mb.     in.     W/m2     F   
------------------------------------------------------------------------------
 109    3:20   64.8    45    2.6   162      4.2   965.3    0.00       0    71.7
 109    3:30   65.3    45    2.7   168      4.2   965.3    0.00       0    71.5
 109    3:40   65.4    45    2.2   158      3.9   965.3    0.00       0    71.4
 109    3:50   64.9    45    1.1   272      2.9   965.3    0.00       0    71.2
 109    4:00   62.0    50    1.1   340      2.0   965.3    0.00       0    71.1
 109    4:10   60.9    53    2.0   342      3.8   965.3    0.00       0    70.9
 109    4:20   60.1    54    2.7   323      4.2   965.4    0.00       0    70.8
 109    4:30   60.9    51    1.1   295      3.1   965.4    0.00       0    70.6
 109    4:40   61.3    50    1.5   283      3.1   965.4    0.00       0    70.4
 109    4:50   61.4    50    0.6   290      2.3   965.5    0.00       0    70.2
 109    5:00   60.9    51    1.1   293      2.2   965.5    0.00       1    70.1
 109    5:10   60.0    52    1.1   295      2.0   965.6    0.00       6    70.0
 109    5:20   59.5    54    0.7   295      2.0   965.6    0.00      10    69.8
 109    5:30   59.2    54    0.8   292      1.8   965.7    0.00      17    69.7
 109    5:40   60.4    51    0.6   293      2.2   965.8    0.00      46    69.6
 109    5:50   61.1    50    1.5   304      2.2   966.0    0.00      86    69.7
 109    6:00   61.6    50    2.2   321      3.4   966.2    0.00      99    70.1
 109    6:10   62.8    47    3.0   311      5.5   966.3    0.00     147    70.5
 109    6:20   64.5    44    3.5   304      5.3   966.5    0.00     169    71.1
 109    6:30   65.4    43    4.0   309      5.6   966.7    0.00     196    71.8
 109    6:40   66.2    42    4.5   308      5.8   967.0    0.00     229    72.5
 109    6:50   67.2    40    4.5   311      6.4   967.1    0.00     263    73.2
 109    7:00   68.1    39    4.3   313      6.3   967.4    0.00     296    74.0
 109    7:10   68.9    38    4.3   314      6.6   967.5    0.00     326    74.9
 109    7:20   69.7    37    3.5   316      4.5   967.6    0.00     357    75.8
 109    7:30   71.1    35    2.9   315      4.2   967.8    0.00     388    76.7
 109    7:40   72.2    34    2.8   310      6.1   967.9    0.00     416    77.8
 109    7:50   73.5    33    2.8   330      5.7   968.1    0.00     445    78.8
 109    8:00   74.8    31    3.3     1      6.2   968.3    0.00     374    79.8
 109    8:10   75.5    30    4.0   336     11.5   968.4    0.00     133    80.7
 109    8:20   75.5    30    4.4   338      8.0   968.5    0.00     230    81.7
 109    8:30   76.6    28    5.7   347      9.1   968.7    0.00      92    82.5
 109    8:40   76.7    28    4.0   328      7.7   968.8    0.00     442    83.4
 109    8:50   77.2    27    3.4   342      7.7   968.8    0.00     607    84.2
 109    9:00   78.0    26    1.8    12      4.6   968.9    0.00     632    85.1
 109    9:10   79.0    25    1.9    84      6.2   969.0    0.00     455    86.1
 109    9:20   78.7    25    2.1   102      5.6   969.1    0.00     679    87.0
 109    9:30   79.4    25    2.9    68      7.4   969.2    0.00     581    87.9
 109    9:40   80.1    24    1.7    30      5.1   969.2    0.00     565    88.7
 109    9:50   80.2    24    2.5    87      5.1   969.2    0.00     334    89.5
 109   10:00   80.0    24    1.0   205      2.6   969.2    0.00     729    90.2
 109   10:10   81.9    23    1.5   175      4.0   969.1    0.00     763    91.1
 109   10:20   80.6    23    3.4   319      5.8   969.0    0.00     776    91.8
 109   10:30   81.7    23    1.6    38      4.7   968.8    0.00     789    92.2
 109   10:40   83.1    22    1.7   260      3.9   968.8    0.00     801    92.7
 109   10:50   82.5    22    2.6   194      6.1   968.7    0.00     808    93.2
 109   11:00   82.4    22    2.4    84      6.1   968.6    0.00     817    93.4
 109   11:10   81.7    22    3.6   160      7.5   968.4    0.00     825    93.0
 109   11:20   82.3    21    3.0   190      6.1   968.3    0.00     831    92.2
 109   11:30   82.8    20    2.4   121      6.4   968.1    0.00     836    91.4
 109   11:40   84.2    19    3.3   146      8.5   967.9    0.00     836    90.5
 109   11:50   84.1    20    3.4   105      7.7   967.8    0.00     836    89.7
 109   12:00   84.5    19    3.6   352      8.1   967.7    0.00     834    88.9
 109   12:10   84.6    18    3.1   175      8.3   967.6    0.00     837    88.2
 109   12:20   84.0    18    5.3   196     10.6   967.5    0.00     832    87.7
 109   12:30   84.2    18    2.8   201      7.3   967.4    0.00     825    87.2
 109   12:40   84.7    17    2.6   173      5.3   967.3    0.00     817    86.7
 109   12:50   84.7    17    2.7   156      7.5   967.2    0.00     809    86.2
 109   13:00   85.6    17    3.4   179      9.3   967.1    0.00     799    85.9
 109   13:10   85.7    16    4.9   158      8.8   967.0    0.00     788    85.5
 109   13:20   85.6    16    4.8   169     10.7   966.9    0.00     776    85.2
 109   13:30   85.8    15    2.9   109      7.1   966.8    0.00     757    85.0
 109   13:40   86.2    15    4.4   151      9.2   966.7    0.00     735    84.7
 109   13:50   85.9    15    3.6   152      7.6   966.7    0.00     713    84.6
 109   14:00   87.1    14    3.4   118      9.4   966.6    0.00     691    84.5
 109   14:10   86.9    14    3.5   110      9.0   966.5    0.00     671    84.4
 109   14:20   87.6    14    3.6    88     10.2   966.4    0.00     662    84.4
 109   14:30   87.2    14    5.3   173      8.3   966.3    0.00     631    84.4
 109   14:40   87.9    13    3.6   126      8.4   966.2    0.00     598    84.6
 109   14:50   87.2    13    4.1   151      9.6   966.2    0.00     448    84.7
 109   15:00   87.0    14    4.2   179     11.5   966.1    0.00     414    84.9
 109   15:10   87.5    14    3.8   241      7.8   966.0    0.00     387    85.1
 109   15:20   87.4    14    2.1   230      6.3   966.0    0.00     411    85.3
 109   15:30   87.5    14    1.7   210      3.7   965.9    0.00     492    85.3
 109   15:40   87.6    13    3.1   160      6.4   965.9    0.00     344    85.3
 109   15:50   87.5    13    2.9   118      7.9   965.9    0.00     369    85.2
 109   16:00   87.9    13    3.0   118      7.0   965.9    0.00     343    85.1
 109   16:10   88.2    14    2.3    92      6.3   965.8    0.00     368    84.9
 109   16:20   88.0    14    4.0    58      7.4   965.8    0.00     318    84.8
 109   16:30   88.1    13    2.4   110      7.7   965.8    0.00     290    84.7
 109   16:40   87.8    14    3.6   102      6.4   965.7    0.00     250    84.6
 109   16:50   87.2    14    3.1    88      6.4   965.6    0.00     213    84.5
 109   17:00   87.2    14    3.9    98      8.0   965.6    0.00     162    84.4
 109   17:10   86.9    14    3.2   104      6.6   965.5    0.00     129    84.3
 109   17:20   86.2    15    3.5   110      8.2   965.4    0.00      88    84.1
 109   17:30   85.6    16    4.0   125      9.7   965.3    0.00      77    84.0
 109   17:40   85.2    16    4.0   129      7.8   965.3    0.00      46    83.8
 109   17:50   84.4    18    4.3   133      8.0   965.2    0.00      35    83.6
 109   18:00   83.7    18    3.3   130      6.9   965.2    0.00      28    83.3
 109   18:10   82.8    19    3.4   137      6.9   965.1    0.00      22    83.0
 109   18:20   82.4    19    3.3   152      6.3   965.1    0.00      11    82.8
 109   18:30   82.2    18    3.1   159      5.3   965.0    0.00       2    82.4
 109   18:40   81.7    18    2.9   158      4.9   965.1    0.00       0    82.2
 109   18:50   81.3    19    1.5   163      3.0   965.2    0.00       0    81.9
 109   19:00   79.2    23    0.9   120      1.8   965.2    0.00       0    81.6
 109   19:10   76.8    26    0.7    95      1.5   965.2    0.00       0    81.3
 109   19:20   75.3    28    1.9    90      2.7   965.1    0.00       0    80.9
 109   19:30   75.1    28    2.5   100      4.3   965.1    0.00       0    80.6
 109   19:40   76.1    25    2.2   118      4.1   965.1    0.00       0    80.2
 109   19:50   76.8    24    1.9   129      3.6   965.2    0.00       0    80.0
 109   20:00   76.9    24    1.0   159      2.1   965.4    0.00       0    79.6
 109   20:10   75.5    26    1.0   115      2.2   965.4    0.00       0    79.3
 109   20:20   73.3    29    0.4    31      1.3   965.4    0.00       0    79.0
 109   20:30   70.7    32    0.7   352      1.5   965.4    0.00       0    78.7
 109   20:40   70.6    31    0.4   286      1.4   965.3    0.00       0    78.3
 109   20:50   68.9    32    1.4   301      3.0   965.2    0.00       0    78.0
 109   21:00   67.7    34    2.2   320      3.7   965.2    0.00       0    77.7
 109   21:10   67.5    34    0.9   357      2.8   965.2    0.00       0    77.3
 109   21:20   68.9    32    0.2   195      1.0   965.2    0.00       0    77.1
 109   21:30   67.5    35    0.8     1      1.7   965.2    0.00       0    76.8
 109   21:40   65.8    38    1.4   347      2.0   965.3    0.00       0    76.5
 109   21:50   65.7    37    0.9   359      1.7   965.4    0.00       0    76.2
 109   22:00   65.4    37    1.0   311      2.7   965.5    0.00       0    76.0
 109   22:10   65.0    38    0.9    58      2.6   965.5    0.00       0    75.7
 109   22:20   66.8    36    1.1   117      2.3   965.5    0.00       0    75.5
 109   22:30   68.6    33    2.1   134      3.9   965.5    0.00       0    75.3
 109   22:40   71.2    31    2.8   141      6.6   965.6    0.00       0    75.1
 109   22:50   71.9    32    2.8   148      5.3   965.7    0.00       0    75.0
 109   23:00   71.7    34    3.1   155      5.3   965.8    0.00       0    74.8
 109   23:10   71.3    35    3.0   137      6.5   965.9    0.00       0    74.7
 109   23:20   71.7    35    2.5   138      5.9   965.9    0.00       0    74.6
 109   23:30   71.0    36    1.9   172      3.6   966.1    0.00       0    74.5
 109   23:40   67.7    38    2.4   300      4.5   966.2    0.00       0    74.3
 109   23:50   64.3    43    2.7   330      3.9   966.2    0.00       0    74.1
 110    0:00   62.9    44    1.8   318      3.6   966.1    0.00       0    73.9
 110    0:10   63.0    44    0.3   333      1.4   966.0    0.00       0    73.7
 110    0:20   62.7    44    2.1   311      3.6   966.0    0.00       0    73.4
 110    0:30   61.0    47    3.2   331      6.2   966.0    0.00       0    73.2
 110    0:40   61.3    45    2.2   321      4.2   965.9    0.00       0    73.0
 110    0:50   62.6    42    2.4   291      3.9   965.8    0.00       0    72.7
 110    1:00   63.3    41    1.9   290      3.7   965.8    0.00       0    72.6
 110    1:10   62.7    42    2.0   312      3.2   965.8    0.00       0    72.4
 110    1:20   61.5    44    2.4   321      3.4   965.9    0.00       0    72.1
 110    1:30   59.8    47    2.5   328      3.1   965.9    0.00       0    71.9
 110    1:40   59.0    48    2.5   330      3.2   965.9    0.00       0    71.7
 110    1:50   58.8    48    2.4   328      4.4   965.9    0.00       0    71.5
 110    2:00   60.0    46    2.3   306      4.1   966.0    0.00       0    71.3
 110    2:10   61.1    44    1.6   295      2.9   966.0    0.00       0    71.2
 110    2:20   61.1    44    1.3   303      3.1   966.0    0.00       0    71.0
 110    2:30   59.7    47    2.1   316      2.8   966.1    0.00       0    70.8
 110    2:40   58.9    48    2.7   312      4.3   966.1    0.00       0    70.7
 110    2:50   59.2    48    2.8   298      4.9   966.1    0.00       0    70.5
 110    3:00   59.6    47    2.9   310      3.9   966.3    0.00       0    70.3
 110    3:10   58.4    50    2.1   329      3.1   966.3    0.00       0    70.1

Return to Overton, Nevada graphs page.


Western Regional Climate Center,wrcc@dri.edu